sensor_id;sensor_type;location;lat;lon;timestamp;P1;durP1;ratioP1;P2;durP2;ratioP2
3567;SDS011;1798;48.486;9.232;2024-02-14T00:02:02;14.43;;;5.80;;
3567;SDS011;1798;48.486;9.232;2024-02-14T00:04:31;15.15;;;5.53;;
3567;SDS011;1798;48.486;9.232;2024-02-14T00:06:58;14.50;;;6.00;;
3567;SDS011;1798;48.486;9.232;2024-02-14T00:09:24;17.95;;;6.88;;
3567;SDS011;1798;48.486;9.232;2024-02-14T00:11:51;18.10;;;7.03;;
3567;SDS011;1798;48.486;9.232;2024-02-14T00:14:18;15.27;;;6.80;;
3567;SDS011;1798;48.486;9.232;2024-02-14T00:16:45;14.35;;;6.20;;
3567;SDS011;1798;48.486;9.232;2024-02-14T00:19:12;17.50;;;7.13;;
3567;SDS011;1798;48.486;9.232;2024-02-14T00:21:40;15.95;;;7.82;;
3567;SDS011;1798;48.486;9.232;2024-02-14T00:24:06;16.27;;;7.47;;
3567;SDS011;1798;48.486;9.232;2024-02-14T00:26:33;14.40;;;6.30;;
3567;SDS011;1798;48.486;9.232;2024-02-14T00:29:00;16.02;;;6.80;;
3567;SDS011;1798;48.486;9.232;2024-02-14T00:31:30;14.60;;;6.13;;
3567;SDS011;1798;48.486;9.232;2024-02-14T00:33:57;13.60;;;5.55;;
3567;SDS011;1798;48.486;9.232;2024-02-14T00:36:23;17.45;;;5.55;;
3567;SDS011;1798;48.486;9.232;2024-02-14T00:38:51;12.77;;;5.90;;
3567;SDS011;1798;48.486;9.232;2024-02-14T00:41:18;11.05;;;5.80;;
3567;SDS011;1798;48.486;9.232;2024-02-14T00:43:44;15.10;;;5.70;;
3567;SDS011;1798;48.486;9.232;2024-02-14T00:46:15;15.15;;;6.32;;
3567;SDS011;1798;48.486;9.232;2024-02-14T00:48:42;17.90;;;5.75;;
3567;SDS011;1798;48.486;9.232;2024-02-14T00:51:09;15.73;;;6.30;;
3567;SDS011;1798;48.486;9.232;2024-02-14T00:53:36;14.40;;;6.30;;
3567;SDS011;1798;48.486;9.232;2024-02-14T00:56:04;19.42;;;6.57;;
3567;SDS011;1798;48.486;9.232;2024-02-14T00:58:31;12.63;;;6.18;;
3567;SDS011;1798;48.486;9.232;2024-02-14T01:00:57;14.30;;;6.03;;
3567;SDS011;1798;48.486;9.232;2024-02-14T01:03:24;16.60;;;5.50;;
3567;SDS011;1798;48.486;9.232;2024-02-14T01:05:51;15.25;;;6.53;;
3567;SDS011;1798;48.486;9.232;2024-02-14T01:08:18;16.65;;;6.00;;
3567;SDS011;1798;48.486;9.232;2024-02-14T01:10:44;16.35;;;6.15;;
3567;SDS011;1798;48.486;9.232;2024-02-14T01:13:13;10.98;;;5.50;;
3567;SDS011;1798;48.486;9.232;2024-02-14T01:15:39;16.70;;;5.85;;
3567;SDS011;1798;48.486;9.232;2024-02-14T01:18:06;14.95;;;6.00;;
3567;SDS011;1798;48.486;9.232;2024-02-14T01:20:33;13.90;;;5.20;;
3567;SDS011;1798;48.486;9.232;2024-02-14T01:23:00;11.90;;;5.30;;
3567;SDS011;1798;48.486;9.232;2024-02-14T01:25:26;14.23;;;5.78;;
3567;SDS011;1798;48.486;9.232;2024-02-14T01:27:53;12.10;;;5.77;;
3567;SDS011;1798;48.486;9.232;2024-02-14T01:30:21;21.73;;;6.10;;
3567;SDS011;1798;48.486;9.232;2024-02-14T01:32:50;17.80;;;5.70;;
3567;SDS011;1798;48.486;9.232;2024-02-14T01:35:18;16.60;;;6.00;;
3567;SDS011;1798;48.486;9.232;2024-02-14T01:37:44;14.18;;;6.07;;
3567;SDS011;1798;48.486;9.232;2024-02-14T01:40:11;14.25;;;5.75;;
3567;SDS011;1798;48.486;9.232;2024-02-14T01:42:38;17.45;;;6.05;;
3567;SDS011;1798;48.486;9.232;2024-02-14T01:45:05;13.00;;;5.90;;
3567;SDS011;1798;48.486;9.232;2024-02-14T01:47:34;13.07;;;5.93;;
3567;SDS011;1798;48.486;9.232;2024-02-14T01:50:01;15.07;;;5.90;;
3567;SDS011;1798;48.486;9.232;2024-02-14T01:52:29;11.68;;;5.10;;
3567;SDS011;1798;48.486;9.232;2024-02-14T01:54:56;19.35;;;6.43;;
3567;SDS011;1798;48.486;9.232;2024-02-14T01:57:22;16.50;;;6.03;;
3567;SDS011;1798;48.486;9.232;2024-02-14T01:59:50;16.92;;;6.50;;
3567;SDS011;1798;48.486;9.232;2024-02-14T02:02:18;12.13;;;5.93;;
3567;SDS011;1798;48.486;9.232;2024-02-14T02:04:46;18.50;;;6.40;;
3567;SDS011;1798;48.486;9.232;2024-02-14T02:07:13;13.85;;;6.20;;
3567;SDS011;1798;48.486;9.232;2024-02-14T02:09:40;14.07;;;5.60;;
3567;SDS011;1798;48.486;9.232;2024-02-14T02:12:06;14.52;;;6.05;;
3567;SDS011;1798;48.486;9.232;2024-02-14T02:14:33;16.35;;;5.80;;
3567;SDS011;1798;48.486;9.232;2024-02-14T02:16:59;19.00;;;6.07;;
3567;SDS011;1798;48.486;9.232;2024-02-14T02:19:32;16.13;;;5.40;;
3567;SDS011;1798;48.486;9.232;2024-02-14T02:22:00;12.35;;;5.88;;
3567;SDS011;1798;48.486;9.232;2024-02-14T02:24:28;13.98;;;7.22;;
3567;SDS011;1798;48.486;9.232;2024-02-14T02:26:54;17.03;;;10.07;;
3567;SDS011;1798;48.486;9.232;2024-02-14T02:29:21;19.35;;;8.55;;
3567;SDS011;1798;48.486;9.232;2024-02-14T02:31:48;17.02;;;8.35;;
3567;SDS011;1798;48.486;9.232;2024-02-14T02:34:14;16.80;;;8.30;;
3567;SDS011;1798;48.486;9.232;2024-02-14T02:36:41;21.70;;;8.40;;
3567;SDS011;1798;48.486;9.232;2024-02-14T02:39:10;16.40;;;6.30;;
3567;SDS011;1798;48.486;9.232;2024-02-14T02:41:40;12.87;;;5.87;;
3567;SDS011;1798;48.486;9.232;2024-02-14T02:44:07;11.48;;;5.13;;
3567;SDS011;1798;48.486;9.232;2024-02-14T02:46:33;15.32;;;5.80;;
3567;SDS011;1798;48.486;9.232;2024-02-14T02:49:00;23.13;;;5.78;;
3567;SDS011;1798;48.486;9.232;2024-02-14T02:51:27;15.65;;;5.25;;
3567;SDS011;1798;48.486;9.232;2024-02-14T02:53:55;15.75;;;6.00;;
3567;SDS011;1798;48.486;9.232;2024-02-14T02:56:22;14.38;;;5.20;;
3567;SDS011;1798;48.486;9.232;2024-02-14T02:58:53;12.48;;;5.50;;
3567;SDS011;1798;48.486;9.232;2024-02-14T03:01:20;14.07;;;5.33;;
3567;SDS011;1798;48.486;9.232;2024-02-14T03:03:49;16.25;;;6.10;;
3567;SDS011;1798;48.486;9.232;2024-02-14T03:06:15;13.15;;;5.60;;
3567;SDS011;1798;48.486;9.232;2024-02-14T03:08:42;13.00;;;6.13;;
3567;SDS011;1798;48.486;9.232;2024-02-14T03:11:08;15.25;;;5.10;;
3567;SDS011;1798;48.486;9.232;2024-02-14T03:13:35;15.40;;;4.83;;
3567;SDS011;1798;48.486;9.232;2024-02-14T03:16:07;11.10;;;5.50;;
3567;SDS011;1798;48.486;9.232;2024-02-14T03:18:33;13.80;;;4.97;;
3567;SDS011;1798;48.486;9.232;2024-02-14T03:21:00;15.88;;;4.80;;
3567;SDS011;1798;48.486;9.232;2024-02-14T03:23:27;14.18;;;5.35;;
3567;SDS011;1798;48.486;9.232;2024-02-14T03:25:53;20.27;;;5.10;;
3567;SDS011;1798;48.486;9.232;2024-02-14T03:28:20;15.90;;;4.75;;
3567;SDS011;1798;48.486;9.232;2024-02-14T03:30:47;17.55;;;5.47;;
3567;SDS011;1798;48.486;9.232;2024-02-14T03:33:15;14.67;;;5.70;;
3567;SDS011;1798;48.486;9.232;2024-02-14T03:35:41;12.13;;;5.27;;
3567;SDS011;1798;48.486;9.232;2024-02-14T03:38:08;13.98;;;5.40;;
3567;SDS011;1798;48.486;9.232;2024-02-14T03:40:34;12.35;;;4.95;;
3567;SDS011;1798;48.486;9.232;2024-02-14T03:43:01;10.82;;;4.68;;
3567;SDS011;1798;48.486;9.232;2024-02-14T03:45:28;14.60;;;5.18;;
3567;SDS011;1798;48.486;9.232;2024-02-14T03:47:55;15.52;;;4.85;;
3567;SDS011;1798;48.486;9.232;2024-02-14T03:50:23;13.47;;;5.83;;
3567;SDS011;1798;48.486;9.232;2024-02-14T03:52:49;13.90;;;5.50;;
3567;SDS011;1798;48.486;9.232;2024-02-14T03:55:16;13.10;;;4.40;;
3567;SDS011;1798;48.486;9.232;2024-02-14T03:57:44;15.07;;;4.95;;
3567;SDS011;1798;48.486;9.232;2024-02-14T04:00:12;14.07;;;4.50;;
3567;SDS011;1798;48.486;9.232;2024-02-14T04:02:39;9.70;;;4.90;;
3567;SDS011;1798;48.486;9.232;2024-02-14T04:05:06;14.10;;;4.23;;
3567;SDS011;1798;48.486;9.232;2024-02-14T04:07:35;11.20;;;4.50;;
3567;SDS011;1798;48.486;9.232;2024-02-14T04:10:02;11.83;;;4.80;;
3567;SDS011;1798;48.486;9.232;2024-02-14T04:12:29;11.73;;;4.75;;
3567;SDS011;1798;48.486;9.232;2024-02-14T04:14:55;16.33;;;4.82;;
3567;SDS011;1798;48.486;9.232;2024-02-14T04:17:22;14.65;;;4.40;;
3567;SDS011;1798;48.486;9.232;2024-02-14T04:19:49;14.25;;;4.50;;
3567;SDS011;1798;48.486;9.232;2024-02-14T04:22:15;10.77;;;4.00;;
3567;SDS011;1798;48.486;9.232;2024-02-14T04:24:43;17.23;;;5.32;;
3567;SDS011;1798;48.486;9.232;2024-02-14T04:27:10;19.23;;;5.50;;
3567;SDS011;1798;48.486;9.232;2024-02-14T04:29:36;12.27;;;4.90;;
3567;SDS011;1798;48.486;9.232;2024-02-14T04:32:03;10.68;;;5.20;;
3567;SDS011;1798;48.486;9.232;2024-02-14T04:34:29;13.23;;;5.55;;
3567;SDS011;1798;48.486;9.232;2024-02-14T04:36:56;14.90;;;5.75;;
3567;SDS011;1798;48.486;9.232;2024-02-14T04:39:23;10.38;;;4.57;;
3567;SDS011;1798;48.486;9.232;2024-02-14T04:41:51;16.75;;;4.40;;
3567;SDS011;1798;48.486;9.232;2024-02-14T04:44:19;11.95;;;4.55;;
3567;SDS011;1798;48.486;9.232;2024-02-14T04:46:45;10.25;;;3.90;;
3567;SDS011;1798;48.486;9.232;2024-02-14T04:49:12;10.57;;;4.53;;
3567;SDS011;1798;48.486;9.232;2024-02-14T04:51:40;14.60;;;4.57;;
3567;SDS011;1798;48.486;9.232;2024-02-14T04:54:06;15.40;;;4.20;;
3567;SDS011;1798;48.486;9.232;2024-02-14T04:56:33;13.67;;;5.00;;
3567;SDS011;1798;48.486;9.232;2024-02-14T04:59:01;10.70;;;4.32;;
3567;SDS011;1798;48.486;9.232;2024-02-14T05:01:30;19.88;;;6.72;;
3567;SDS011;1798;48.486;9.232;2024-02-14T05:03:56;15.60;;;7.13;;
3567;SDS011;1798;48.486;9.232;2024-02-14T05:06:22;21.55;;;9.05;;
3567;SDS011;1798;48.486;9.232;2024-02-14T05:08:48;15.77;;;8.05;;
3567;SDS011;1798;48.486;9.232;2024-02-14T05:11:16;17.92;;;8.15;;
3567;SDS011;1798;48.486;9.232;2024-02-14T05:13:43;17.88;;;7.78;;
3567;SDS011;1798;48.486;9.232;2024-02-14T05:16:11;14.82;;;8.30;;
3567;SDS011;1798;48.486;9.232;2024-02-14T05:18:37;24.48;;;9.60;;
3567;SDS011;1798;48.486;9.232;2024-02-14T05:21:05;20.67;;;9.47;;
3567;SDS011;1798;48.486;9.232;2024-02-14T05:23:32;17.25;;;7.68;;
3567;SDS011;1798;48.486;9.232;2024-02-14T05:25:59;20.23;;;9.27;;
3567;SDS011;1798;48.486;9.232;2024-02-14T05:28:27;18.90;;;8.02;;
3567;SDS011;1798;48.486;9.232;2024-02-14T05:30:53;16.02;;;7.22;;
3567;SDS011;1798;48.486;9.232;2024-02-14T05:33:21;13.80;;;6.53;;
3567;SDS011;1798;48.486;9.232;2024-02-14T05:35:48;13.57;;;6.18;;
3567;SDS011;1798;48.486;9.232;2024-02-14T05:38:14;14.32;;;5.90;;
3567;SDS011;1798;48.486;9.232;2024-02-14T05:40:41;16.25;;;5.10;;
3567;SDS011;1798;48.486;9.232;2024-02-14T05:43:09;13.55;;;6.20;;
3567;SDS011;1798;48.486;9.232;2024-02-14T05:45:35;18.02;;;6.07;;
3567;SDS011;1798;48.486;9.232;2024-02-14T05:48:02;14.18;;;6.45;;
3567;SDS011;1798;48.486;9.232;2024-02-14T05:50:30;18.33;;;6.13;;
3567;SDS011;1798;48.486;9.232;2024-02-14T05:52:58;17.10;;;6.87;;
3567;SDS011;1798;48.486;9.232;2024-02-14T05:55:24;19.33;;;8.03;;
3567;SDS011;1798;48.486;9.232;2024-02-14T05:57:51;20.73;;;7.80;;
3567;SDS011;1798;48.486;9.232;2024-02-14T06:00:18;18.30;;;7.50;;
3567;SDS011;1798;48.486;9.232;2024-02-14T06:02:45;16.63;;;7.38;;
3567;SDS011;1798;48.486;9.232;2024-02-14T06:05:12;18.63;;;8.57;;
3567;SDS011;1798;48.486;9.232;2024-02-14T06:07:40;16.60;;;7.32;;
3567;SDS011;1798;48.486;9.232;2024-02-14T06:10:07;15.85;;;6.93;;
3567;SDS011;1798;48.486;9.232;2024-02-14T06:12:35;30.17;;;7.10;;
3567;SDS011;1798;48.486;9.232;2024-02-14T06:15:01;16.60;;;6.80;;
3567;SDS011;1798;48.486;9.232;2024-02-14T06:17:29;15.75;;;6.85;;
3567;SDS011;1798;48.486;9.232;2024-02-14T06:19:55;18.47;;;7.37;;
3567;SDS011;1798;48.486;9.232;2024-02-14T06:22:22;14.45;;;6.95;;
3567;SDS011;1798;48.486;9.232;2024-02-14T06:24:50;17.33;;;6.75;;
3567;SDS011;1798;48.486;9.232;2024-02-14T06:27:17;18.17;;;6.38;;
3567;SDS011;1798;48.486;9.232;2024-02-14T06:29:43;16.93;;;7.10;;
3567;SDS011;1798;48.486;9.232;2024-02-14T06:32:12;18.73;;;7.35;;
3567;SDS011;1798;48.486;9.232;2024-02-14T06:34:39;16.48;;;5.88;;
3567;SDS011;1798;48.486;9.232;2024-02-14T06:37:06;18.02;;;6.50;;
3567;SDS011;1798;48.486;9.232;2024-02-14T06:39:32;14.23;;;6.50;;
3567;SDS011;1798;48.486;9.232;2024-02-14T06:42:01;13.68;;;6.03;;
3567;SDS011;1798;48.486;9.232;2024-02-14T06:44:29;16.27;;;6.00;;
3567;SDS011;1798;48.486;9.232;2024-02-14T06:46:55;14.60;;;5.90;;
3567;SDS011;1798;48.486;9.232;2024-02-14T06:49:22;17.42;;;6.88;;
3567;SDS011;1798;48.486;9.232;2024-02-14T06:51:49;15.48;;;5.75;;
3567;SDS011;1798;48.486;9.232;2024-02-14T06:54:15;16.23;;;6.50;;
3567;SDS011;1798;48.486;9.232;2024-02-14T06:56:44;17.08;;;5.90;;
3567;SDS011;1798;48.486;9.232;2024-02-14T06:59:12;16.80;;;6.43;;
3567;SDS011;1798;48.486;9.232;2024-02-14T07:01:39;16.75;;;7.20;;
3567;SDS011;1798;48.486;9.232;2024-02-14T07:04:05;11.75;;;5.28;;
3567;SDS011;1798;48.486;9.232;2024-02-14T07:06:32;15.05;;;5.55;;
3567;SDS011;1798;48.486;9.232;2024-02-14T07:08:59;22.42;;;6.72;;
3567;SDS011;1798;48.486;9.232;2024-02-14T07:11:25;22.00;;;6.65;;
3567;SDS011;1798;48.486;9.232;2024-02-14T07:13:52;15.05;;;6.90;;
3567;SDS011;1798;48.486;9.232;2024-02-14T07:16:20;16.17;;;5.13;;
3567;SDS011;1798;48.486;9.232;2024-02-14T07:18:46;17.23;;;6.40;;
3567;SDS011;1798;48.486;9.232;2024-02-14T07:21:14;14.32;;;5.90;;
3567;SDS011;1798;48.486;9.232;2024-02-14T07:23:42;15.30;;;5.83;;
3567;SDS011;1798;48.486;9.232;2024-02-14T07:26:08;17.83;;;5.88;;
3567;SDS011;1798;48.486;9.232;2024-02-14T07:28:35;18.00;;;5.90;;
3567;SDS011;1798;48.486;9.232;2024-02-14T07:31:01;21.00;;;5.97;;
3567;SDS011;1798;48.486;9.232;2024-02-14T07:33:30;23.02;;;6.13;;
3567;SDS011;1798;48.486;9.232;2024-02-14T07:35:57;17.48;;;6.10;;
3567;SDS011;1798;48.486;9.232;2024-02-14T07:38:23;14.27;;;5.85;;
3567;SDS011;1798;48.486;9.232;2024-02-14T07:40:50;13.95;;;5.60;;
3567;SDS011;1798;48.486;9.232;2024-02-14T07:43:16;16.65;;;5.70;;
3567;SDS011;1798;48.486;9.232;2024-02-14T07:45:43;16.42;;;5.15;;
3567;SDS011;1798;48.486;9.232;2024-02-14T07:48:10;37.05;;;6.40;;
3567;SDS011;1798;48.486;9.232;2024-02-14T07:50:38;17.50;;;5.30;;
3567;SDS011;1798;48.486;9.232;2024-02-14T07:53:04;19.90;;;6.20;;
3567;SDS011;1798;48.486;9.232;2024-02-14T07:55:31;19.33;;;6.90;;
3567;SDS011;1798;48.486;9.232;2024-02-14T07:57:58;23.87;;;5.97;;
3567;SDS011;1798;48.486;9.232;2024-02-14T08:00:25;8.80;;;4.53;;
3567;SDS011;1798;48.486;9.232;2024-02-14T08:02:52;12.57;;;5.13;;
3567;SDS011;1798;48.486;9.232;2024-02-14T08:05:19;16.85;;;5.60;;
3567;SDS011;1798;48.486;9.232;2024-02-14T08:07:47;12.68;;;5.30;;
3567;SDS011;1798;48.486;9.232;2024-02-14T08:10:14;16.43;;;6.20;;
3567;SDS011;1798;48.486;9.232;2024-02-14T08:12:40;16.63;;;5.50;;
3567;SDS011;1798;48.486;9.232;2024-02-14T08:15:08;16.58;;;5.60;;
3567;SDS011;1798;48.486;9.232;2024-02-14T08:17:35;13.60;;;4.97;;
3567;SDS011;1798;48.486;9.232;2024-02-14T08:20:01;17.55;;;6.32;;
3567;SDS011;1798;48.486;9.232;2024-02-14T08:22:29;17.40;;;5.80;;
3567;SDS011;1798;48.486;9.232;2024-02-14T08:24:58;27.88;;;6.60;;
3567;SDS011;1798;48.486;9.232;2024-02-14T08:27:25;17.15;;;6.63;;
3567;SDS011;1798;48.486;9.232;2024-02-14T08:29:52;11.85;;;5.72;;
3567;SDS011;1798;48.486;9.232;2024-02-14T08:32:19;14.80;;;7.03;;
3567;SDS011;1798;48.486;9.232;2024-02-14T08:34:46;17.52;;;6.35;;
3567;SDS011;1798;48.486;9.232;2024-02-14T08:37:12;16.17;;;6.35;;
3567;SDS011;1798;48.486;9.232;2024-02-14T08:39:39;15.35;;;6.13;;
3567;SDS011;1798;48.486;9.232;2024-02-14T08:42:07;18.50;;;7.07;;
3567;SDS011;1798;48.486;9.232;2024-02-14T08:44:34;21.83;;;7.43;;
3567;SDS011;1798;48.486;9.232;2024-02-14T08:47:02;22.60;;;6.38;;
3567;SDS011;1798;48.486;9.232;2024-02-14T08:49:29;14.97;;;5.67;;
3567;SDS011;1798;48.486;9.232;2024-02-14T08:51:56;15.57;;;5.85;;
3567;SDS011;1798;48.486;9.232;2024-02-14T08:54:22;16.93;;;5.60;;
3567;SDS011;1798;48.486;9.232;2024-02-14T08:56:49;16.57;;;5.50;;
3567;SDS011;1798;48.486;9.232;2024-02-14T08:59:19;19.45;;;6.00;;
3567;SDS011;1798;48.486;9.232;2024-02-14T09:01:46;11.15;;;5.13;;
3567;SDS011;1798;48.486;9.232;2024-02-14T09:04:13;12.68;;;4.60;;
3567;SDS011;1798;48.486;9.232;2024-02-14T09:06:40;16.80;;;5.75;;
3567;SDS011;1798;48.486;9.232;2024-02-14T09:09:06;9.98;;;4.90;;
3567;SDS011;1798;48.486;9.232;2024-02-14T09:11:35;13.70;;;5.53;;
3567;SDS011;1798;48.486;9.232;2024-02-14T09:14:02;13.00;;;5.57;;
3567;SDS011;1798;48.486;9.232;2024-02-14T09:16:33;9.95;;;5.00;;
3567;SDS011;1798;48.486;9.232;2024-02-14T09:18:59;15.20;;;4.80;;
3567;SDS011;1798;48.486;9.232;2024-02-14T09:21:28;12.63;;;5.27;;
3567;SDS011;1798;48.486;9.232;2024-02-14T09:23:56;18.50;;;6.30;;
3567;SDS011;1798;48.486;9.232;2024-02-14T09:26:23;17.83;;;5.40;;
3567;SDS011;1798;48.486;9.232;2024-02-14T09:28:49;11.90;;;5.40;;
3567;SDS011;1798;48.486;9.232;2024-02-14T09:31:19;16.13;;;5.82;;
3567;SDS011;1798;48.486;9.232;2024-02-14T09:33:47;21.70;;;7.97;;
3567;SDS011;1798;48.486;9.232;2024-02-14T09:36:14;16.55;;;6.10;;
3567;SDS011;1798;48.486;9.232;2024-02-14T09:38:41;16.25;;;6.10;;
3567;SDS011;1798;48.486;9.232;2024-02-14T09:41:11;16.70;;;5.93;;
3567;SDS011;1798;48.486;9.232;2024-02-14T09:43:43;14.02;;;4.55;;
3567;SDS011;1798;48.486;9.232;2024-02-14T09:46:10;13.63;;;5.47;;
3567;SDS011;1798;48.486;9.232;2024-02-14T09:48:38;14.52;;;5.50;;
3567;SDS011;1798;48.486;9.232;2024-02-14T09:51:06;16.00;;;4.60;;
3567;SDS011;1798;48.486;9.232;2024-02-14T09:53:33;14.35;;;5.53;;
3567;SDS011;1798;48.486;9.232;2024-02-14T09:56:00;9.85;;;5.15;;
3567;SDS011;1798;48.486;9.232;2024-02-14T09:58:28;9.23;;;5.35;;
3567;SDS011;1798;48.486;9.232;2024-02-14T10:00:58;10.18;;;5.10;;
3567;SDS011;1798;48.486;9.232;2024-02-14T10:03:25;11.38;;;5.10;;
3567;SDS011;1798;48.486;9.232;2024-02-14T10:05:52;9.73;;;5.13;;
3567;SDS011;1798;48.486;9.232;2024-02-14T10:08:20;14.30;;;5.30;;
3567;SDS011;1798;48.486;9.232;2024-02-14T10:10:46;11.23;;;5.00;;
3567;SDS011;1798;48.486;9.232;2024-02-14T10:13:14;17.92;;;5.75;;
3567;SDS011;1798;48.486;9.232;2024-02-14T10:15:41;15.73;;;5.57;;
3567;SDS011;1798;48.486;9.232;2024-02-14T10:18:08;10.98;;;4.90;;
3567;SDS011;1798;48.486;9.232;2024-02-14T10:20:52;12.73;;;5.05;;
3567;SDS011;1798;48.486;9.232;2024-02-14T10:23:21;8.68;;;4.38;;
3567;SDS011;1798;48.486;9.232;2024-02-14T10:25:49;10.38;;;4.80;;
3567;SDS011;1798;48.486;9.232;2024-02-14T10:28:16;11.85;;;5.30;;
3567;SDS011;1798;48.486;9.232;2024-02-14T10:30:45;10.40;;;4.85;;
3567;SDS011;1798;48.486;9.232;2024-02-14T10:33:12;10.23;;;5.35;;
3567;SDS011;1798;48.486;9.232;2024-02-14T10:35:40;10.10;;;4.70;;
3567;SDS011;1798;48.486;9.232;2024-02-14T10:38:07;9.00;;;4.60;;
3567;SDS011;1798;48.486;9.232;2024-02-14T10:40:36;10.38;;;5.00;;
3567;SDS011;1798;48.486;9.232;2024-02-14T10:43:03;11.80;;;4.68;;
3567;SDS011;1798;48.486;9.232;2024-02-14T10:45:30;10.10;;;4.50;;
3567;SDS011;1798;48.486;9.232;2024-02-14T10:47:57;9.10;;;4.70;;
3567;SDS011;1798;48.486;9.232;2024-02-14T10:50:27;8.40;;;4.90;;
3567;SDS011;1798;48.486;9.232;2024-02-14T10:52:57;11.75;;;4.55;;
3567;SDS011;1798;48.486;9.232;2024-02-14T10:55:24;12.60;;;4.90;;
3567;SDS011;1798;48.486;9.232;2024-02-14T10:57:53;8.30;;;4.60;;
3567;SDS011;1798;48.486;9.232;2024-02-14T11:00:20;9.70;;;4.70;;
3567;SDS011;1798;48.486;9.232;2024-02-14T11:02:47;10.55;;;4.18;;
3567;SDS011;1798;48.486;9.232;2024-02-14T11:05:14;9.73;;;4.78;;
3567;SDS011;1798;48.486;9.232;2024-02-14T11:07:44;10.65;;;3.80;;
3567;SDS011;1798;48.486;9.232;2024-02-14T11:10:13;14.38;;;4.90;;
3567;SDS011;1798;48.486;9.232;2024-02-14T11:12:40;8.15;;;4.03;;
3567;SDS011;1798;48.486;9.232;2024-02-14T11:15:12;13.10;;;3.60;;
3567;SDS011;1798;48.486;9.232;2024-02-14T11:17:43;8.48;;;4.28;;
3567;SDS011;1798;48.486;9.232;2024-02-14T11:20:16;9.03;;;3.93;;
3567;SDS011;1798;48.486;9.232;2024-02-14T11:22:53;10.80;;;3.90;;
3567;SDS011;1798;48.486;9.232;2024-02-14T11:25:22;9.33;;;3.50;;
3567;SDS011;1798;48.486;9.232;2024-02-14T11:27:49;8.88;;;3.97;;
3567;SDS011;1798;48.486;9.232;2024-02-14T11:30:27;14.87;;;4.80;;
3567;SDS011;1798;48.486;9.232;2024-02-14T11:32:55;10.80;;;4.47;;
3567;SDS011;1798;48.486;9.232;2024-02-14T11:35:21;32.58;;;4.80;;
3567;SDS011;1798;48.486;9.232;2024-02-14T11:37:51;8.50;;;4.00;;
3567;SDS011;1798;48.486;9.232;2024-02-14T11:40:19;8.43;;;4.32;;
3567;SDS011;1798;48.486;9.232;2024-02-14T11:42:46;14.90;;;4.55;;
3567;SDS011;1798;48.486;9.232;2024-02-14T11:45:12;8.25;;;3.85;;
3567;SDS011;1798;48.486;9.232;2024-02-14T11:47:41;10.80;;;4.45;;
3567;SDS011;1798;48.486;9.232;2024-02-14T11:50:08;9.20;;;3.97;;
3567;SDS011;1798;48.486;9.232;2024-02-14T11:52:35;8.82;;;4.28;;
3567;SDS011;1798;48.486;9.232;2024-02-14T11:55:02;8.30;;;3.80;;
3567;SDS011;1798;48.486;9.232;2024-02-14T11:57:29;9.88;;;4.45;;
3567;SDS011;1798;48.486;9.232;2024-02-14T11:59:57;8.10;;;3.50;;
3567;SDS011;1798;48.486;9.232;2024-02-14T12:02:24;9.13;;;3.50;;
3567;SDS011;1798;48.486;9.232;2024-02-14T12:04:52;15.05;;;4.15;;
3567;SDS011;1798;48.486;9.232;2024-02-14T12:07:20;7.82;;;3.70;;
3567;SDS011;1798;48.486;9.232;2024-02-14T12:09:47;12.23;;;4.10;;
3567;SDS011;1798;48.486;9.232;2024-02-14T12:12:15;8.25;;;4.03;;
3567;SDS011;1798;48.486;9.232;2024-02-14T12:14:43;12.98;;;4.07;;
3567;SDS011;1798;48.486;9.232;2024-02-14T12:17:10;6.90;;;3.30;;
3567;SDS011;1798;48.486;9.232;2024-02-14T12:19:37;8.25;;;3.38;;
3567;SDS011;1798;48.486;9.232;2024-02-14T12:22:09;12.27;;;3.60;;
3567;SDS011;1798;48.486;9.232;2024-02-14T12:24:42;10.13;;;3.90;;
3567;SDS011;1798;48.486;9.232;2024-02-14T12:27:09;7.25;;;3.42;;
3567;SDS011;1798;48.486;9.232;2024-02-14T12:29:36;6.95;;;3.33;;
3567;SDS011;1798;48.486;9.232;2024-02-14T12:32:03;8.60;;;3.70;;
3567;SDS011;1798;48.486;9.232;2024-02-14T12:34:31;7.70;;;3.40;;
3567;SDS011;1798;48.486;9.232;2024-02-14T12:36:58;8.30;;;3.20;;
3567;SDS011;1798;48.486;9.232;2024-02-14T12:39:27;7.00;;;3.72;;
3567;SDS011;1798;48.486;9.232;2024-02-14T12:41:54;11.02;;;4.07;;
3567;SDS011;1798;48.486;9.232;2024-02-14T12:44:21;7.38;;;3.08;;
3567;SDS011;1798;48.486;9.232;2024-02-14T12:46:47;8.15;;;3.45;;
3567;SDS011;1798;48.486;9.232;2024-02-14T12:49:14;7.33;;;3.37;;
3567;SDS011;1798;48.486;9.232;2024-02-14T12:51:40;11.25;;;3.90;;
3567;SDS011;1798;48.486;9.232;2024-02-14T12:54:07;8.85;;;3.65;;
3567;SDS011;1798;48.486;9.232;2024-02-14T12:56:38;7.15;;;3.38;;
3567;SDS011;1798;48.486;9.232;2024-02-14T12:59:05;7.38;;;3.65;;
3567;SDS011;1798;48.486;9.232;2024-02-14T13:01:31;7.95;;;3.33;;
3567;SDS011;1798;48.486;9.232;2024-02-14T13:03:58;7.30;;;3.20;;
3567;SDS011;1798;48.486;9.232;2024-02-14T13:06:27;9.85;;;3.35;;
3567;SDS011;1798;48.486;9.232;2024-02-14T13:08:54;8.20;;;3.13;;
3567;SDS011;1798;48.486;9.232;2024-02-14T13:11:21;6.90;;;3.30;;
3567;SDS011;1798;48.486;9.232;2024-02-14T13:13:49;5.90;;;2.70;;
3567;SDS011;1798;48.486;9.232;2024-02-14T13:16:15;7.20;;;3.55;;
3567;SDS011;1798;48.486;9.232;2024-02-14T13:18:42;8.83;;;3.43;;
3567;SDS011;1798;48.486;9.232;2024-02-14T13:21:08;7.18;;;3.58;;
3567;SDS011;1798;48.486;9.232;2024-02-14T13:23:35;7.33;;;2.80;;
3567;SDS011;1798;48.486;9.232;2024-02-14T13:26:02;7.07;;;3.40;;
3567;SDS011;1798;48.486;9.232;2024-02-14T13:28:29;8.50;;;3.20;;
3567;SDS011;1798;48.486;9.232;2024-02-14T13:30:57;7.53;;;3.30;;
3567;SDS011;1798;48.486;9.232;2024-02-14T13:33:23;7.40;;;3.25;;
3567;SDS011;1798;48.486;9.232;2024-02-14T13:35:50;8.65;;;3.75;;
3567;SDS011;1798;48.486;9.232;2024-02-14T13:38:17;6.13;;;3.42;;
3567;SDS011;1798;48.486;9.232;2024-02-14T13:40:43;7.00;;;3.10;;
3567;SDS011;1798;48.486;9.232;2024-02-14T13:43:10;9.52;;;3.40;;
3567;SDS011;1798;48.486;9.232;2024-02-14T13:45:40;8.32;;;3.35;;
3567;SDS011;1798;48.486;9.232;2024-02-14T13:48:10;8.85;;;3.30;;
3567;SDS011;1798;48.486;9.232;2024-02-14T13:50:37;5.60;;;2.90;;
3567;SDS011;1798;48.486;9.232;2024-02-14T13:53:04;10.82;;;3.30;;
3567;SDS011;1798;48.486;9.232;2024-02-14T13:55:31;7.53;;;3.40;;
3567;SDS011;1798;48.486;9.232;2024-02-14T13:57:57;7.18;;;3.53;;
3567;SDS011;1798;48.486;9.232;2024-02-14T14:00:25;7.85;;;3.20;;
3567;SDS011;1798;48.486;9.232;2024-02-14T14:02:52;13.88;;;3.13;;
3567;SDS011;1798;48.486;9.232;2024-02-14T14:05:21;7.00;;;3.17;;
3567;SDS011;1798;48.486;9.232;2024-02-14T14:07:48;6.80;;;2.90;;
3567;SDS011;1798;48.486;9.232;2024-02-14T14:10:15;11.07;;;3.30;;
3567;SDS011;1798;48.486;9.232;2024-02-14T14:12:42;6.20;;;3.00;;
3567;SDS011;1798;48.486;9.232;2024-02-14T14:15:08;8.52;;;3.30;;
3567;SDS011;1798;48.486;9.232;2024-02-14T14:17:35;6.47;;;2.90;;
3567;SDS011;1798;48.486;9.232;2024-02-14T14:20:02;6.47;;;2.80;;
3567;SDS011;1798;48.486;9.232;2024-02-14T14:22:31;7.93;;;3.13;;
3567;SDS011;1798;48.486;9.232;2024-02-14T14:24:58;8.45;;;3.40;;
3567;SDS011;1798;48.486;9.232;2024-02-14T14:27:24;7.35;;;3.30;;
3567;SDS011;1798;48.486;9.232;2024-02-14T14:29:51;5.25;;;2.78;;
3567;SDS011;1798;48.486;9.232;2024-02-14T14:32:18;5.90;;;2.80;;
3567;SDS011;1798;48.486;9.232;2024-02-14T14:34:45;6.38;;;3.10;;
3567;SDS011;1798;48.486;9.232;2024-02-14T14:37:12;9.13;;;2.70;;
3567;SDS011;1798;48.486;9.232;2024-02-14T14:39:40;6.72;;;2.33;;
3567;SDS011;1798;48.486;9.232;2024-02-14T14:42:07;5.32;;;2.20;;
3567;SDS011;1798;48.486;9.232;2024-02-14T14:44:33;4.68;;;2.22;;
3567;SDS011;1798;48.486;9.232;2024-02-14T14:47:00;19.73;;;2.58;;
3567;SDS011;1798;48.486;9.232;2024-02-14T14:49:26;8.20;;;2.70;;
3567;SDS011;1798;48.486;9.232;2024-02-14T14:51:53;5.00;;;2.17;;
3567;SDS011;1798;48.486;9.232;2024-02-14T14:54:22;6.57;;;2.28;;
3567;SDS011;1798;48.486;9.232;2024-02-14T14:56:52;5.63;;;2.30;;
3567;SDS011;1798;48.486;9.232;2024-02-14T14:59:19;6.30;;;2.30;;
3567;SDS011;1798;48.486;9.232;2024-02-14T15:01:47;11.18;;;2.20;;
3567;SDS011;1798;48.486;9.232;2024-02-14T15:04:15;6.30;;;2.20;;
3567;SDS011;1798;48.486;9.232;2024-02-14T15:06:42;11.02;;;2.83;;